createdAt,value
2023-04-29T00:01:22.850Z,8.70
2023-04-29T00:03:51.173Z,8.50
2023-04-29T00:06:19.464Z,8.30
2023-04-29T00:08:47.535Z,8.30
2023-04-29T00:11:15.637Z,8.20
2023-04-29T00:13:43.741Z,8.20
2023-04-29T00:16:11.838Z,8.30
2023-04-29T00:18:41.290Z,8.50
2023-04-29T00:21:09.547Z,8.70
2023-04-29T00:23:37.684Z,8.80
2023-04-29T00:26:05.829Z,8.70
2023-04-29T00:28:34.230Z,8.80
2023-04-29T00:31:02.410Z,8.90
2023-04-29T00:33:30.616Z,9.10
2023-04-29T00:36:00.116Z,9.00
2023-04-29T00:38:28.183Z,9.00
2023-04-29T00:40:57.416Z,9.10
2023-04-29T00:43:25.497Z,9.20
2023-04-29T00:45:54.331Z,9.40
2023-04-29T00:48:22.483Z,9.50
2023-04-29T00:50:51.250Z,9.70
2023-04-29T00:53:23.101Z,9.80
2023-04-29T00:55:53.285Z,9.90
2023-04-29T00:58:22.520Z,10.00
2023-04-29T01:00:51.140Z,10.00
2023-04-29T01:03:20.935Z,10.10
2023-04-29T01:06:02.960Z,10.20
2023-04-29T01:08:48.171Z,10.10
2023-04-29T01:11:23.594Z,10.00
2023-04-29T01:13:55.918Z,10.00
2023-04-29T01:16:31.807Z,9.90
2023-04-29T01:19:07.696Z,9.70
2023-04-29T01:21:49.188Z,9.50
2023-04-29T01:24:18.747Z,9.30
2023-04-29T01:26:58.565Z,9.10
2023-04-29T01:29:41.226Z,8.90
2023-04-29T01:32:20.157Z,9.00
2023-04-29T01:34:59.557Z,9.20
2023-04-29T01:37:39.956Z,9.40
2023-04-29T01:40:20.070Z,9.50
2023-04-29T01:43:00.692Z,9.50
2023-04-29T01:45:29.904Z,9.50
2023-04-29T01:48:00.915Z,9.30
2023-04-29T01:50:29.223Z,9.20
2023-04-29T01:52:57.275Z,9.10
2023-04-29T01:55:26.783Z,9.10
2023-04-29T01:57:54.918Z,9.00
2023-04-29T02:00:23.638Z,8.90
2023-04-29T02:02:51.942Z,8.80
2023-04-29T02:05:20.106Z,8.80
2023-04-29T02:07:48.238Z,8.70
2023-04-29T02:10:16.584Z,8.60
2023-04-29T02:12:46.460Z,8.50
2023-04-29T02:15:14.661Z,8.50
2023-04-29T02:17:42.756Z,8.40
2023-04-29T02:20:11.668Z,8.40
2023-04-29T02:22:39.888Z,8.40
2023-04-29T02:25:08.873Z,8.60
2023-04-29T02:27:37.081Z,8.80
2023-04-29T02:30:08.438Z,9.40
2023-04-29T02:32:37.117Z,9.70
2023-04-29T02:35:06.253Z,9.90
2023-04-29T02:37:34.483Z,10.00
2023-04-29T02:40:03.660Z,10.10
2023-04-29T02:42:31.748Z,10.20
2023-04-29T02:44:59.821Z,10.40
2023-04-29T02:47:29.310Z,10.40
2023-04-29T02:49:57.391Z,10.50
2023-04-29T02:52:25.511Z,10.50
2023-04-29T02:54:53.520Z,10.60
2023-04-29T02:57:21.730Z,10.60
2023-04-29T02:59:50.246Z,10.60
2023-04-29T03:02:18.543Z,10.70
2023-04-29T03:04:48.369Z,10.90
2023-04-29T03:07:16.954Z,11.10
2023-04-29T03:09:45.234Z,11.20
2023-04-29T03:12:13.325Z,11.40
2023-04-29T03:14:41.618Z,11.40
2023-04-29T03:17:09.704Z,11.40
2023-04-29T03:19:37.809Z,11.40
2023-04-29T03:22:08.241Z,11.30
2023-04-29T03:24:36.355Z,11.40
2023-04-29T03:27:04.756Z,11.50
2023-04-29T03:29:33.022Z,11.50
2023-04-29T03:32:02.629Z,11.60
2023-04-29T03:34:31.285Z,11.70
2023-04-29T03:36:59.766Z,11.60
2023-04-29T03:39:32.285Z,11.70
2023-04-29T03:42:01.310Z,11.70
2023-04-29T03:44:30.173Z,11.70
2023-04-29T03:46:58.276Z,11.70
2023-04-29T03:49:26.396Z,11.60
2023-04-29T03:51:54.915Z,11.50
2023-04-29T03:54:23.726Z,11.40
2023-04-29T03:56:53.143Z,11.50
2023-04-29T03:59:21.509Z,11.70
2023-04-29T04:01:49.604Z,11.80
2023-04-29T04:04:17.918Z,11.80
2023-04-29T04:06:51.292Z,11.70
2023-04-29T04:09:19.801Z,11.70
2023-04-29T04:11:47.982Z,11.70
2023-04-29T04:14:18.960Z,11.80
2023-04-29T04:16:47.064Z,11.80
2023-04-29T04:19:15.163Z,11.80
2023-04-29T04:21:43.453Z,11.70
2023-04-29T04:24:11.581Z,11.60
2023-04-29T04:26:39.811Z,11.60
2023-04-29T04:29:07.958Z,11.50
2023-04-29T04:31:38.287Z,11.50
2023-04-29T04:34:06.766Z,11.50
2023-04-29T04:36:35.041Z,11.50
2023-04-29T04:39:03.087Z,11.50
2023-04-29T04:41:32.067Z,11.50
2023-04-29T04:44:07.994Z,11.50
2023-04-29T04:46:40.439Z,11.50
2023-04-29T04:49:08.890Z,11.60
2023-04-29T04:51:37.004Z,11.60
2023-04-29T04:54:05.166Z,11.60
2023-04-29T04:56:33.242Z,11.60
2023-04-29T04:59:01.438Z,11.60
2023-04-29T05:01:29.737Z,11.70
2023-04-29T05:03:59.602Z,11.60
2023-04-29T05:06:27.813Z,11.60
2023-04-29T05:08:55.952Z,11.70
2023-04-29T05:11:24.175Z,11.70
2023-04-29T05:13:52.237Z,11.70
2023-04-29T05:16:20.509Z,11.70
2023-04-29T05:18:48.889Z,11.70
2023-04-29T05:21:18.358Z,11.70
2023-04-29T05:23:46.418Z,11.80
2023-04-29T05:26:14.526Z,11.80
2023-04-29T05:28:42.684Z,11.80
2023-04-29T05:31:11.407Z,11.90
2023-04-29T05:33:39.576Z,11.90
2023-04-29T05:36:08.366Z,12.00
2023-04-29T05:38:38.246Z,12.00
2023-04-29T05:41:06.641Z,12.00
2023-04-29T05:43:36.203Z,12.00
2023-04-29T05:46:06.142Z,12.10
2023-04-29T05:48:34.299Z,12.10
2023-04-29T05:51:02.837Z,12.10
2023-04-29T05:53:31.510Z,12.10
2023-04-29T05:56:04.914Z,12.10
2023-04-29T05:58:32.997Z,12.10
2023-04-29T06:01:01.365Z,12.10
2023-04-29T06:03:29.793Z,12.10
2023-04-29T06:05:59.056Z,12.10
2023-04-29T06:08:27.794Z,12.10
2023-04-29T06:10:55.849Z,12.10
2023-04-29T06:13:25.893Z,12.10
2023-04-29T06:15:54.023Z,12.20
2023-04-29T06:18:22.265Z,12.20
2023-04-29T06:20:50.402Z,12.20
2023-04-29T06:23:18.558Z,12.20
2023-04-29T06:25:46.683Z,12.30
2023-04-29T06:28:15.036Z,12.30
2023-04-29T06:30:45.801Z,12.30
2023-04-29T06:33:13.848Z,12.30
2023-04-29T06:35:42.141Z,12.30
2023-04-29T06:38:10.244Z,12.30
2023-04-29T06:40:38.461Z,12.40
2023-04-29T06:43:06.491Z,12.30
2023-04-29T06:45:34.553Z,12.30
2023-04-29T06:48:04.235Z,12.20
2023-04-29T06:50:32.295Z,12.20
2023-04-29T06:53:00.422Z,12.20
2023-04-29T06:55:28.472Z,12.10
2023-04-29T06:57:57.625Z,12.10
2023-04-29T07:00:25.821Z,12.10
2023-04-29T07:02:54.004Z,12.20
2023-04-29T07:05:24.395Z,12.20
2023-04-29T07:07:52.669Z,12.20
2023-04-29T07:10:20.840Z,12.20
2023-04-29T07:12:48.900Z,12.20
2023-04-29T07:15:17.172Z,12.10
2023-04-29T07:17:45.590Z,12.20
2023-04-29T07:20:17.827Z,12.20
2023-04-29T07:22:47.400Z,12.20
2023-04-29T07:25:15.490Z,12.30
2023-04-29T07:27:43.552Z,12.30
2023-04-29T07:30:12.563Z,12.20
2023-04-29T07:32:40.961Z,12.30
2023-04-29T07:35:10.019Z,12.40
2023-04-29T07:37:38.071Z,12.50
2023-04-29T07:40:09.556Z,12.50
2023-04-29T07:42:37.680Z,12.60
2023-04-29T07:45:07.188Z,12.70
2023-04-29T07:47:35.434Z,12.70
2023-04-29T07:50:03.808Z,12.80
2023-04-29T07:52:32.055Z,12.90
2023-04-29T07:55:00.112Z,13.00
2023-04-29T07:57:29.633Z,13.10
2023-04-29T07:59:57.704Z,13.20
2023-04-29T08:02:25.890Z,13.20
2023-04-29T08:04:54.795Z,13.30
2023-04-29T08:07:23.357Z,13.50
2023-04-29T08:09:51.409Z,13.50
2023-04-29T08:12:19.468Z,13.60
2023-04-29T08:14:49.463Z,13.60
2023-04-29T08:17:17.570Z,13.70
2023-04-29T08:19:45.834Z,13.90
2023-04-29T08:22:14.562Z,14.00
2023-04-29T08:24:42.860Z,14.00
2023-04-29T08:27:10.913Z,14.10
2023-04-29T08:29:39.289Z,14.30
2023-04-29T08:32:08.992Z,14.20
2023-04-29T08:34:37.610Z,14.10
2023-04-29T08:37:06.345Z,14.10
2023-04-29T08:39:34.452Z,13.90
2023-04-29T08:42:09.632Z,13.70
2023-04-29T08:44:38.196Z,13.60
2023-04-29T08:47:08.359Z,13.50
2023-04-29T08:49:38.105Z,13.30
2023-04-29T08:52:06.755Z,13.30
2023-04-29T08:54:36.131Z,13.40
2023-04-29T08:57:06.552Z,13.60
2023-04-29T08:59:34.947Z,13.80
2023-04-29T09:02:04.508Z,13.90
2023-04-29T09:04:48.510Z,13.90
2023-04-29T09:07:18.260Z,13.80
2023-04-29T09:09:47.641Z,13.50
2023-04-29T09:12:15.769Z,13.50
2023-04-29T09:14:43.888Z,13.60
2023-04-29T09:17:11.997Z,13.80
2023-04-29T09:19:41.439Z,13.90
2023-04-29T09:22:09.560Z,13.90
2023-04-29T09:24:38.055Z,14.00
2023-04-29T09:27:06.092Z,14.00
2023-04-29T09:29:36.506Z,14.20
2023-04-29T09:32:21.327Z,14.40
2023-04-29T09:34:51.241Z,14.60
2023-04-29T09:37:27.870Z,14.40
2023-04-29T09:39:56.505Z,14.30
2023-04-29T09:42:24.722Z,14.20
2023-04-29T09:44:54.526Z,14.30
2023-04-29T09:47:32.956Z,14.30
2023-04-29T09:50:16.278Z,14.30
2023-04-29T09:52:44.355Z,14.40
2023-04-29T09:55:15.348Z,14.50
2023-04-29T09:57:45.237Z,14.60
2023-04-29T10:00:15.579Z,14.70
2023-04-29T10:02:46.697Z,14.70
2023-04-29T10:05:17.868Z,14.70
2023-04-29T10:07:49.130Z,14.90
2023-04-29T10:10:18.062Z,15.10
2023-04-29T10:12:47.103Z,15.40
2023-04-29T10:15:30.620Z,15.40
2023-04-29T10:18:13.453Z,15.20
2023-04-29T10:20:49.542Z,15.20
2023-04-29T10:23:18.916Z,15.50
2023-04-29T10:25:49.816Z,15.70
2023-04-29T10:28:19.718Z,15.70
2023-04-29T10:30:52.904Z,15.50
2023-04-29T10:33:23.305Z,15.40
2023-04-29T10:35:54.044Z,15.30
2023-04-29T10:38:31.972Z,15.20
2023-04-29T10:41:05.120Z,15.20
2023-04-29T10:43:33.397Z,14.90
2023-04-29T10:46:22.125Z,14.80
2023-04-29T10:48:52.642Z,14.90
2023-04-29T10:51:33.216Z,14.90
2023-04-29T10:54:04.436Z,14.90
2023-04-29T10:56:44.798Z,15.00
2023-04-29T10:59:14.966Z,15.20
2023-04-29T11:01:53.735Z,15.40
2023-04-29T11:04:23.540Z,15.50
2023-04-29T11:06:58.114Z,15.80
2023-04-29T11:09:28.752Z,16.20
2023-04-29T11:12:05.596Z,16.70
2023-04-29T11:14:38.849Z,17.10
2023-04-29T11:17:13.498Z,16.90
2023-04-29T11:19:45.026Z,16.60
2023-04-29T11:22:26.554Z,16.30
2023-04-29T11:24:58.591Z,16.20
2023-04-29T11:27:28.869Z,16.20
2023-04-29T11:29:59.382Z,15.90
2023-04-29T11:32:29.751Z,15.50
2023-04-29T11:35:09.771Z,15.40
2023-04-29T11:37:41.372Z,15.40
2023-04-29T11:40:11.620Z,15.30
2023-04-29T11:42:46.212Z,15.20
2023-04-29T11:45:15.266Z,15.20
2023-04-29T11:47:46.756Z,15.40
2023-04-29T11:50:20.183Z,15.30
2023-04-29T11:52:50.792Z,15.20
2023-04-29T11:55:20.527Z,15.20
2023-04-29T11:57:51.554Z,15.70
2023-04-29T12:00:19.858Z,16.10
2023-04-29T12:02:48.630Z,16.80
2023-04-29T12:05:19.368Z,17.40
2023-04-29T12:07:50.665Z,17.60
2023-04-29T12:10:19.248Z,17.50
2023-04-29T12:12:47.603Z,18.00
2023-04-29T12:15:16.717Z,18.50
2023-04-29T12:17:46.337Z,18.80
2023-04-29T12:20:17.412Z,19.00
2023-04-29T12:22:45.704Z,18.80
2023-04-29T12:25:18.210Z,18.30
2023-04-29T12:27:46.534Z,18.10
2023-04-29T12:30:15.452Z,17.90
2023-04-29T12:32:43.598Z,17.70
2023-04-29T12:35:18.807Z,17.90
2023-04-29T12:37:51.309Z,18.00
2023-04-29T12:40:21.463Z,17.50
2023-04-29T12:42:49.734Z,17.20
2023-04-29T12:45:36.085Z,16.80
2023-04-29T12:48:10.078Z,16.60
2023-04-29T12:50:51.551Z,16.60
2023-04-29T12:53:19.645Z,16.30
2023-04-29T12:55:50.174Z,16.10
2023-04-29T12:58:18.214Z,16.00
2023-04-29T13:00:46.373Z,15.70
2023-04-29T13:03:15.330Z,15.60
2023-04-29T13:05:43.870Z,15.70
2023-04-29T13:08:11.912Z,15.80
2023-04-29T13:10:40.186Z,15.80
2023-04-29T13:13:10.713Z,15.60
2023-04-29T13:15:39.596Z,15.70
2023-04-29T13:18:07.999Z,15.70
2023-04-29T13:20:41.647Z,15.60
2023-04-29T13:23:12.048Z,15.70
2023-04-29T13:25:40.124Z,15.90
2023-04-29T13:28:09.670Z,15.90
2023-04-29T13:30:37.771Z,15.70
2023-04-29T13:33:12.078Z,15.50
2023-04-29T13:35:41.727Z,15.40
2023-04-29T13:38:10.384Z,15.30
2023-04-29T13:40:42.256Z,15.30
2023-04-29T13:43:18.677Z,15.10
2023-04-29T13:45:57.314Z,15.00
2023-04-29T13:48:52.434Z,15.00
2023-04-29T13:52:01.429Z,15.00
2023-04-29T14:04:08.169Z,15.40
2023-04-29T14:06:36.321Z,15.40
2023-04-29T14:09:04.647Z,15.50
2023-04-29T14:11:36.575Z,15.50
2023-04-29T14:14:06.261Z,15.40
2023-04-29T14:16:34.502Z,15.30
2023-04-29T14:19:04.006Z,15.20
2023-04-29T14:21:33.442Z,15.10
2023-04-29T14:24:03.308Z,14.70
2023-04-29T14:26:31.953Z,14.50
2023-04-29T14:29:01.213Z,14.30
2023-04-29T14:31:34.986Z,14.10
2023-04-29T14:34:03.220Z,14.00
2023-04-29T14:36:32.713Z,13.90
2023-04-29T14:39:01.502Z,13.90
2023-04-29T14:41:29.561Z,14.00
2023-04-29T14:43:57.592Z,14.20
2023-04-29T14:46:26.473Z,14.50
2023-04-29T14:48:56.130Z,14.80
2023-04-29T14:51:24.993Z,15.10
2023-04-29T14:53:53.475Z,15.40
2023-04-29T14:56:21.950Z,15.80
2023-04-29T14:58:50.090Z,15.90
2023-04-29T15:01:18.173Z,15.80
2023-04-29T15:03:46.522Z,15.80
2023-04-29T15:06:16.437Z,15.90
2023-04-29T15:08:44.892Z,15.80
2023-04-29T15:11:12.958Z,15.60
2023-04-29T15:13:40.970Z,15.60
2023-04-29T15:16:10.007Z,15.70
2023-04-29T15:18:38.135Z,15.60
2023-04-29T15:21:06.646Z,15.50
2023-04-29T15:23:36.054Z,15.30
2023-04-29T15:26:04.226Z,15.20
2023-04-29T15:28:32.249Z,15.10
2023-04-29T15:31:03.576Z,15.00
2023-04-29T15:33:31.814Z,15.00
2023-04-29T15:36:00.219Z,14.90
2023-04-29T15:38:29.510Z,14.90
2023-04-29T15:41:01.004Z,14.80
2023-04-29T15:43:29.629Z,14.80
2023-04-29T15:45:59.675Z,14.80
2023-04-29T15:48:27.851Z,14.80
2023-04-29T15:50:56.209Z,14.80
2023-04-29T15:53:24.282Z,14.80
2023-04-29T15:55:52.381Z,14.70
2023-04-29T15:58:21.811Z,14.70
2023-04-29T16:00:51.780Z,14.70
2023-04-29T16:03:20.271Z,14.70
2023-04-29T16:05:48.513Z,14.70
2023-04-29T16:08:16.549Z,14.70
2023-04-29T16:10:45.693Z,14.50
2023-04-29T16:13:14.143Z,14.40
2023-04-29T16:15:43.623Z,14.30
2023-04-29T16:18:12.091Z,14.30
2023-04-29T16:20:40.186Z,14.30
2023-04-29T16:23:08.238Z,14.30
2023-04-29T16:25:36.264Z,14.20
2023-04-29T16:28:04.345Z,14.20
2023-04-29T16:30:32.405Z,14.20
2023-04-29T16:33:01.915Z,14.20
2023-04-29T16:35:31.053Z,14.10
2023-04-29T16:37:59.302Z,14.00
2023-04-29T16:40:27.899Z,14.00
2023-04-29T16:42:56.958Z,14.00
2023-04-29T16:45:26.001Z,13.90
2023-04-29T16:47:54.610Z,13.90
2023-04-29T16:50:24.314Z,13.90
2023-04-29T16:52:52.665Z,13.90
2023-04-29T16:55:20.744Z,14.00
2023-04-29T16:57:48.864Z,14.10
2023-04-29T17:00:17.401Z,14.20
2023-04-29T17:02:47.026Z,14.20
2023-04-29T17:05:16.671Z,14.20
2023-04-29T17:07:46.845Z,14.30
2023-04-29T17:10:14.921Z,14.30
2023-04-29T17:12:43.053Z,14.20
2023-04-29T17:15:12.138Z,14.20
2023-04-29T17:17:40.382Z,14.20
2023-04-29T17:20:10.240Z,14.20
2023-04-29T17:22:38.308Z,14.10
2023-04-29T17:25:09.283Z,14.10
2023-04-29T17:27:37.637Z,14.00
2023-04-29T17:30:07.446Z,14.00
2023-04-29T17:32:39.114Z,14.00
2023-04-29T17:35:09.656Z,13.90
2023-04-29T17:37:38.101Z,13.90
2023-04-29T17:40:09.729Z,13.80
2023-04-29T17:42:37.823Z,13.80
2023-04-29T17:45:07.296Z,13.70
2023-04-29T17:47:35.483Z,13.70
2023-04-29T17:50:03.898Z,13.60
2023-04-29T17:52:32.104Z,13.50
2023-04-29T17:55:00.228Z,13.50
2023-04-29T17:57:29.762Z,13.40
2023-04-29T17:59:58.057Z,13.40
2023-04-29T18:02:26.157Z,13.30
2023-04-29T18:04:54.955Z,13.20
2023-04-29T18:07:23.040Z,13.20
2023-04-29T18:09:51.382Z,13.10
2023-04-29T18:12:19.685Z,13.00
2023-04-29T18:14:49.095Z,13.00
2023-04-29T18:17:17.218Z,13.00
2023-04-29T18:19:49.564Z,12.90
2023-04-29T18:22:17.881Z,12.90
2023-04-29T18:24:46.974Z,12.80
2023-04-29T18:27:15.081Z,12.70
2023-04-29T18:29:43.192Z,12.70
2023-04-29T18:32:12.747Z,12.60
2023-04-29T18:34:40.927Z,12.50
2023-04-29T18:37:09.085Z,12.50
2023-04-29T18:39:37.209Z,12.50
2023-04-29T18:42:05.516Z,12.50
2023-04-29T18:44:34.400Z,12.50
2023-04-29T18:47:02.628Z,12.40
2023-04-29T18:49:32.060Z,12.40
2023-04-29T18:52:01.337Z,12.40
2023-04-29T18:54:29.419Z,12.30
2023-04-29T18:56:57.472Z,12.20
2023-04-29T18:59:26.893Z,12.20
2023-04-29T19:01:55.036Z,12.20
2023-04-29T19:04:23.212Z,12.20
2023-04-29T19:06:52.727Z,12.20
2023-04-29T19:09:20.803Z,12.20
2023-04-29T19:11:48.897Z,12.20
2023-04-29T19:14:16.968Z,12.20
2023-04-29T19:16:45.315Z,12.20
2023-04-29T19:19:13.412Z,12.10
2023-04-29T19:21:41.577Z,12.10
2023-04-29T19:24:11.434Z,12.10
2023-04-29T19:26:40.304Z,12.00
2023-04-29T19:29:08.526Z,11.90
2023-04-29T19:31:37.170Z,12.00
2023-04-29T19:34:05.366Z,12.00
2023-04-29T19:36:33.594Z,12.00
2023-04-29T19:39:02.364Z,12.00
2023-04-29T19:41:34.616Z,12.00
2023-04-29T19:44:03.242Z,12.00
2023-04-29T19:46:31.545Z,11.90
2023-04-29T19:48:59.741Z,12.00
2023-04-29T19:51:27.841Z,11.90
2023-04-29T19:53:59.993Z,11.90
2023-04-29T19:56:28.485Z,11.90
2023-04-29T19:58:57.944Z,11.80
2023-04-29T20:01:26.078Z,11.80
2023-04-29T20:03:54.453Z,11.80
2023-04-29T20:06:22.687Z,11.80
2023-04-29T20:08:50.859Z,11.70
2023-04-29T20:11:19.061Z,11.70
2023-04-29T20:13:47.546Z,11.70
2023-04-29T20:16:17.285Z,11.70
2023-04-29T20:18:45.704Z,11.70
2023-04-29T20:21:13.769Z,11.70
2023-04-29T20:23:41.950Z,11.70
2023-04-29T20:26:10.116Z,11.60
2023-04-29T20:28:38.331Z,11.60
2023-04-29T20:31:06.907Z,11.50
2023-04-29T20:33:36.408Z,11.50
2023-04-29T20:36:06.727Z,11.50
2023-04-29T20:38:36.104Z,11.50
2023-04-29T20:41:05.864Z,11.50
2023-04-29T20:43:33.956Z,11.50
2023-04-29T20:46:03.112Z,11.50
2023-04-29T20:48:31.493Z,11.50
2023-04-29T20:51:01.091Z,11.60
2023-04-29T20:53:29.206Z,11.50
2023-04-29T20:55:57.343Z,11.50
2023-04-29T20:58:25.511Z,11.50
2023-04-29T21:00:53.592Z,11.50
2023-04-29T21:03:22.310Z,11.50
2023-04-29T21:05:55.971Z,11.50
2023-04-29T21:08:26.953Z,11.50
2023-04-29T21:10:55.020Z,11.50
2023-04-29T21:13:23.081Z,11.50
2023-04-29T21:15:51.211Z,11.50
2023-04-29T21:18:19.346Z,11.50
2023-04-29T21:20:47.490Z,11.40
2023-04-29T21:23:15.610Z,11.50
2023-04-29T21:25:45.232Z,11.40
2023-04-29T21:28:16.926Z,11.40
2023-04-29T21:30:45.190Z,11.30
2023-04-29T21:33:13.241Z,11.30
2023-04-29T21:35:42.341Z,11.30
2023-04-29T21:38:10.707Z,11.30
2023-04-29T21:40:42.814Z,11.30
2023-04-29T21:43:12.575Z,11.30
2023-04-29T21:45:42.671Z,11.20
2023-04-29T21:48:15.915Z,11.20
2023-04-29T21:50:45.546Z,11.10
2023-04-29T21:53:16.346Z,11.00
2023-04-29T21:55:44.988Z,10.90
2023-04-29T21:58:16.024Z,10.90
2023-04-29T22:00:57.900Z,11.00
2023-04-29T22:03:26.314Z,11.00
2023-04-29T22:05:54.739Z,11.00
2023-04-29T22:08:23.566Z,11.00
2023-04-29T22:10:51.644Z,11.00
2023-04-29T22:13:21.127Z,11.00
2023-04-29T22:15:49.248Z,10.90
2023-04-29T22:18:17.323Z,10.90
2023-04-29T22:20:45.714Z,10.90
2023-04-29T22:23:13.786Z,10.90
2023-04-29T22:25:41.887Z,10.90
2023-04-29T22:28:09.990Z,10.90
2023-04-29T22:30:39.476Z,10.90
2023-04-29T22:33:07.560Z,10.90
2023-04-29T22:35:35.823Z,10.90
2023-04-29T22:38:03.981Z,11.00
2023-04-29T22:40:32.466Z,11.00
2023-04-29T22:43:00.527Z,11.10
2023-04-29T22:45:28.859Z,11.00
2023-04-29T22:47:58.425Z,10.90
2023-04-29T22:50:26.599Z,10.90
2023-04-29T22:52:54.644Z,10.90
2023-04-29T22:55:22.913Z,10.80
2023-04-29T22:57:54.127Z,10.80
2023-04-29T23:00:22.583Z,10.80
2023-04-29T23:02:50.664Z,10.70
2023-04-29T23:05:20.469Z,10.80
2023-04-29T23:07:48.884Z,10.70
2023-04-29T23:10:17.108Z,10.70
2023-04-29T23:12:45.355Z,10.60
2023-04-29T23:15:13.411Z,10.60
2023-04-29T23:17:41.562Z,10.60
2023-04-29T23:20:11.151Z,10.60
2023-04-29T23:22:40.606Z,10.50
2023-04-29T23:25:09.636Z,10.50
2023-04-29T23:27:37.749Z,10.50
2023-04-29T23:30:07.616Z,10.50
2023-04-29T23:32:36.015Z,10.50
2023-04-29T23:35:04.359Z,10.50
2023-04-29T23:37:32.417Z,10.50
2023-04-29T23:40:01.899Z,10.50
2023-04-29T23:42:30.098Z,10.40
2023-04-29T23:44:58.177Z,10.40
2023-04-29T23:47:26.352Z,10.40
2023-04-29T23:49:54.799Z,10.40
2023-04-29T23:52:24.678Z,10.40
2023-04-29T23:54:52.797Z,10.30
2023-04-29T23:57:22.260Z,10.30
2023-04-29T23:59:50.418Z,10.30
